Time;durP1;ratioP1;P1;durP2;ratioP2;P2;SDS_P1;SDS_P2;PMS_P1;PMS_P2;Temp;Humidity;BMP_temperature;BMP_pressure;BME280_temperature;BME280_humidity;BME280_pressure;Samples;Min_cycle;Max_cycle;Signal;HPM_P1;HPM_P2
2023/10/03 00:00:13;;;;;;;15.18;8.88;;;;;;;;;;8211031;28;20111;-61
2023/10/03 00:04:14;;;;;;;20.08;8.55;;;;;;;;;;8215670;28;20014;-60
2023/10/03 00:08:14;;;;;;;16.73;8.40;;;;;;;;;;8213064;28;20030;-61
2023/10/03 00:12:14;;;;;;;15.00;7.90;;;;;;;;;;8214438;28;20045;-60
2023/10/03 00:16:15;;;;;;;18.35;9.00;;;;;;;;;;8214376;28;20436;-61
2023/10/03 00:20:17;;;;;;;19.42;8.57;;;;;;;;;;8218503;28;20119;-60
2023/10/03 00:24:18;;;;;;;16.70;8.60;;;;;;;;;;8226908;28;20022;-61
2023/10/03 00:28:19;;;;;;;14.40;6.90;;;;;;;;;;8226120;28;20061;-61
2023/10/03 00:32:19;;;;;;;15.10;7.75;;;;;;;;;;8226216;28;20281;-60
2023/10/03 00:36:24;;;;;;;13.63;6.75;;;;;;;;;;8229046;28;20834;-61
2023/10/03 00:44:26;;;;;;;10.10;5.40;;;;;;;;;;8229225;28;20034;-60
2023/10/03 00:48:27;;;;;;;7.85;5.15;;;;;;;;;;8229816;28;20026;-61
2023/10/03 00:52:27;;;;;;;13.68;5.43;;;;;;;;;;8233047;28;20018;-61
2023/10/03 00:56:28;;;;;;;7.90;4.90;;;;;;;;;;8235106;28;20835;-60
2023/10/03 01:00:28;;;;;;;9.30;5.07;;;;;;;;;;8230174;28;20038;-61
2023/10/03 01:04:30;;;;;;;9.07;4.77;;;;;;;;;;8232275;28;20052;-60
2023/10/03 01:08:31;;;;;;;8.07;4.57;;;;;;;;;;8231295;28;20092;-61
2023/10/03 01:12:31;;;;;;;9.18;4.95;;;;;;;;;;8233110;28;20030;-61
2023/10/03 01:16:33;;;;;;;9.02;4.75;;;;;;;;;;8232660;28;20038;-61
2023/10/03 01:20:48;;;;;;;8.23;4.60;;;;;;;;;;8227492;28;20034;-60
2023/10/03 01:24:50;;;;;;;9.60;5.18;;;;;;;;;;8238807;28;22140;-60
2023/10/03 01:28:51;;;;;;;10.00;4.50;;;;;;;;;;8233981;28;20415;-61
2023/10/03 01:32:53;;;;;;;14.10;4.70;;;;;;;;;;8224646;28;20132;-61
2023/10/03 01:36:53;;;;;;;10.30;4.40;;;;;;;;;;8229550;28;20145;-60
2023/10/03 01:40:57;;;;;;;8.52;4.55;;;;;;;;;;8231515;28;20057;-60
2023/10/03 01:44:57;;;;;;;7.47;4.63;;;;;;;;;;8228127;28;20056;-61
2023/10/03 01:48:57;;;;;;;10.48;4.50;;;;;;;;;;8227488;28;20034;-60
2023/10/03 01:52:58;;;;;;;8.93;4.35;;;;;;;;;;8222965;28;20114;-61
2023/10/03 01:57:00;;;;;;;10.63;4.10;;;;;;;;;;8224647;28;20039;-61
2023/10/03 02:01:01;;;;;;;8.68;4.38;;;;;;;;;;8221230;28;20517;-60
2023/10/03 02:05:02;;;;;;;9.63;4.30;;;;;;;;;;8226319;28;20036;-61
2023/10/03 02:09:03;;;;;;;8.32;4.00;;;;;;;;;;8224299;28;20200;-61
2023/10/03 02:13:12;;;;;;;5.65;4.07;;;;;;;;;;8225689;28;20603;-60
2023/10/03 02:17:12;;;;;;;7.30;4.38;;;;;;;;;;8224031;28;20044;-61
2023/10/03 02:21:16;;;;;;;8.53;4.17;;;;;;;;;;8226629;28;20471;-61
2023/10/03 02:25:18;;;;;;;7.22;4.30;;;;;;;;;;8225859;28;20120;-61
2023/10/03 02:29:18;;;;;;;8.50;4.57;;;;;;;;;;8223946;28;20038;-61
2023/10/03 02:33:22;;;;;;;9.15;4.13;;;;;;;;;;8224626;28;20068;-61
2023/10/03 02:37:23;;;;;;;9.82;4.57;;;;;;;;;;8224204;28;20029;-60
2023/10/03 02:41:23;;;;;;;5.67;4.07;;;;;;;;;;8226456;28;20030;-61
2023/10/03 02:45:25;;;;;;;9.13;4.40;;;;;;;;;;8226331;28;20268;-61
2023/10/03 02:49:25;;;;;;;11.13;4.40;;;;;;;;;;8224108;28;20285;-62
2023/10/03 02:53:26;;;;;;;6.60;4.30;;;;;;;;;;8223666;28;20105;-61
2023/10/03 02:57:26;;;;;;;8.00;4.50;;;;;;;;;;8224382;28;20269;-61
2023/10/03 03:01:26;;;;;;;8.45;4.75;;;;;;;;;;8222545;28;20822;-61
2023/10/03 03:05:35;;;;;;;5.57;4.00;;;;;;;;;;8223915;28;20028;-61
2023/10/03 03:09:36;;;;;;;6.40;4.10;;;;;;;;;;8222888;28;20441;-60
2023/10/03 03:13:36;;;;;;;7.82;4.03;;;;;;;;;;8225108;28;20034;-61
2023/10/03 03:17:40;;;;;;;8.40;4.20;;;;;;;;;;8221069;28;20042;-60
2023/10/03 03:21:41;;;;;;;5.93;3.65;;;;;;;;;;8220156;28;20884;-60
2023/10/03 03:25:42;;;;;;;8.43;3.95;;;;;;;;;;8223928;28;20882;-60
2023/10/03 03:34:18;;;;;;;9.98;3.90;;;;;;;;;;8199797;28;21482;-61
2023/10/03 03:38:20;;;;;;;6.73;4.13;;;;;;;;;;8223488;28;20084;-60
2023/10/03 03:42:22;;;;;;;7.07;3.78;;;;;;;;;;8222028;28;20690;-61
2023/10/03 03:46:22;;;;;;;8.07;4.28;;;;;;;;;;8223495;28;20169;-61
2023/10/03 03:50:23;;;;;;;7.10;3.83;;;;;;;;;;8221303;28;20057;-60
2023/10/03 03:54:23;;;;;;;8.10;3.97;;;;;;;;;;8222893;28;20548;-60
2023/10/03 03:58:23;;;;;;;7.95;4.00;;;;;;;;;;8221870;28;20026;-61
2023/10/03 04:02:24;;;;;;;7.65;4.22;;;;;;;;;;8218388;28;20045;-61
2023/10/03 04:06:24;;;;;;;10.38;4.13;;;;;;;;;;8222730;28;20017;-61
2023/10/03 04:10:26;;;;;;;7.70;4.47;;;;;;;;;;8222730;28;20068;-60
2023/10/03 04:14:27;;;;;;;7.85;4.18;;;;;;;;;;8223083;28;20510;-60
2023/10/03 04:18:28;;;;;;;7.78;4.30;;;;;;;;;;8220398;28;20974;-60
2023/10/03 04:22:28;;;;;;;10.20;4.10;;;;;;;;;;8222876;28;20397;-60
2023/10/03 04:26:32;;;;;;;9.18;3.97;;;;;;;;;;8221959;28;20594;-60
2023/10/03 04:30:33;;;;;;;9.00;4.72;;;;;;;;;;8220575;28;20420;-60
2023/10/03 04:34:33;;;;;;;6.18;4.10;;;;;;;;;;8224326;28;20050;-61
2023/10/03 04:38:33;;;;;;;7.23;4.17;;;;;;;;;;8222700;28;20051;-60
2023/10/03 04:42:35;;;;;;;8.53;4.57;;;;;;;;;;8222746;28;20284;-61
2023/10/03 04:46:35;;;;;;;11.20;4.72;;;;;;;;;;8221520;28;20129;-60
2023/10/03 04:50:36;;;;;;;8.67;4.40;;;;;;;;;;8223214;28;20058;-60
2023/10/03 04:54:37;;;;;;;7.60;4.70;;;;;;;;;;8220906;28;20033;-61
2023/10/03 04:58:37;;;;;;;7.18;4.47;;;;;;;;;;8223153;28;20022;-60
2023/10/03 05:02:37;;;;;;;7.68;4.45;;;;;;;;;;8218385;28;20458;-61
2023/10/03 05:06:38;;;;;;;7.30;3.97;;;;;;;;;;8223679;28;20025;-61
2023/10/03 05:10:38;;;;;;;11.47;4.33;;;;;;;;;;8228684;28;20061;-61
2023/10/03 05:14:42;;;;;;;6.35;3.83;;;;;;;;;;8225730;28;20795;-60
2023/10/03 05:18:42;;;;;;;;;;;;;;;;;;8225902;28;20046;-61
2023/10/03 05:22:42;;;;;;;4.97;3.90;;;;;;;;;;8227865;28;19968;-60
2023/10/03 05:26:43;;;;;;;11.77;4.80;;;;;;;;;;8227881;28;20106;-61
2023/10/03 05:30:43;;;;;;;8.90;4.80;;;;;;;;;;8226495;28;20030;-61
2023/10/03 05:34:43;;;;;;;8.10;4.32;;;;;;;;;;8224073;28;20026;-61
2023/10/03 05:38:43;;;;;;;9.40;4.27;;;;;;;;;;8229169;28;20034;-60
2023/10/03 05:42:45;;;;;;;7.75;4.38;;;;;;;;;;8227559;28;20264;-60
2023/10/03 05:46:45;;;;;;;12.85;4.60;;;;;;;;;;8229012;28;20406;-61
2023/10/03 05:50:46;;;;;;;7.87;4.43;;;;;;;;;;8228108;28;20109;-62
2023/10/03 05:54:46;;;;;;;9.35;4.50;;;;;;;;;;8229839;28;20408;-60
2023/10/03 05:58:47;;;;;;;7.93;4.55;;;;;;;;;;8226865;28;20014;-62
2023/10/03 06:02:48;;;;;;;6.93;4.43;;;;;;;;;;8226483;28;20030;-60
2023/10/03 06:06:49;;;;;;;6.57;4.15;;;;;;;;;;8226150;28;20033;-61
2023/10/03 06:10:50;;;;;;;6.85;4.50;;;;;;;;;;8227754;28;20125;-61
2023/10/03 06:14:50;;;;;;;9.13;4.20;;;;;;;;;;8228614;28;20077;-61
2023/10/03 06:18:51;;;;;;;9.65;4.40;;;;;;;;;;8223603;28;20113;-60
2023/10/03 06:22:51;;;;;;;9.50;4.40;;;;;;;;;;8225916;28;20034;-61
2023/10/03 06:26:51;;;;;;;7.78;4.00;;;;;;;;;;8228096;28;20356;-60
2023/10/03 06:30:52;;;;;;;9.15;4.15;;;;;;;;;;8226513;28;20069;-61
2023/10/03 06:34:52;;;;;;;7.72;4.25;;;;;;;;;;8224809;28;20028;-60
2023/10/03 06:38:53;;;;;;;11.50;4.23;;;;;;;;;;8223675;28;20034;-61
2023/10/03 06:42:54;;;;;;;7.90;4.32;;;;;;;;;;8222200;28;20469;-60
2023/10/03 06:46:54;;;;;;;7.20;4.32;;;;;;;;;;8223455;28;20041;-61
2023/10/03 06:50:54;;;;;;;10.82;4.40;;;;;;;;;;8224800;28;20659;-61
2023/10/03 06:54:55;;;;;;;7.70;4.17;;;;;;;;;;8224978;28;21494;-61
2023/10/03 06:58:55;;;;;;;8.23;4.50;;;;;;;;;;8226688;28;20037;-61
2023/10/03 07:02:56;;;;;;;9.00;4.32;;;;;;;;;;8222148;28;20035;-61
2023/10/03 07:06:56;;;;;;;9.48;4.85;;;;;;;;;;8223651;28;20583;-60
2023/10/03 07:10:57;;;;;;;9.87;4.90;;;;;;;;;;8222964;28;20034;-60
2023/10/03 07:14:57;;;;;;;10.68;4.82;;;;;;;;;;8226928;28;20037;-61
2023/10/03 07:18:58;;;;;;;8.05;4.47;;;;;;;;;;8226329;28;20552;-61
2023/10/03 07:23:00;;;;;;;7.05;4.38;;;;;;;;;;8221203;28;20305;-60
2023/10/03 07:27:03;;;;;;;7.00;4.22;;;;;;;;;;8221372;28;20040;-61
2023/10/03 07:31:07;;;;;;;11.15;4.57;;;;;;;;;;8222313;28;20045;-61
2023/10/03 07:35:11;;;;;;;;;;;;;;;;;;8225615;28;20035;-60
2023/10/03 07:39:11;;;;;;;;;;;;;;;;;;8223966;28;20326;-61
2023/10/03 07:43:12;;;;;;;6.75;4.22;;;;;;;;;;8223885;28;19940;-60
2023/10/03 07:47:13;;;;;;;8.57;4.35;;;;;;;;;;8221093;28;20042;-60
2023/10/03 07:51:17;;;;;;;9.43;4.47;;;;;;;;;;8225622;28;20108;-60
2023/10/03 07:55:19;;;;;;;8.85;4.95;;;;;;;;;;8225003;28;20029;-61
2023/10/03 07:59:19;;;;;;;7.57;4.50;;;;;;;;;;8227740;28;20069;-61
2023/10/03 08:03:19;;;;;;;8.00;4.50;;;;;;;;;;8222076;28;20048;-61
2023/10/03 08:07:23;;;;;;;8.00;4.53;;;;;;;;;;8224346;28;20284;-60
2023/10/03 08:11:28;;;;;;;6.93;4.70;;;;;;;;;;8217702;28;20513;-61
2023/10/03 08:15:32;;;;;;;8.02;4.47;;;;;;;;;;8220472;28;20057;-60
2023/10/03 08:19:32;;;;;;;8.00;4.72;;;;;;;;;;8221399;28;20098;-61
2023/10/03 08:23:33;;;;;;;9.33;4.70;;;;;;;;;;8223036;28;20038;-61
2023/10/03 08:27:33;;;;;;;7.70;4.28;;;;;;;;;;8221907;28;20034;-62
2023/10/03 08:31:38;;;;;;;10.35;4.90;;;;;;;;;;8220392;28;20035;-60
2023/10/03 08:35:39;;;;;;;7.15;4.53;;;;;;;;;;8224116;28;20021;-62
2023/10/03 08:39:40;;;;;;;7.95;4.82;;;;;;;;;;8222486;28;20763;-61
2023/10/03 08:43:41;;;;;;;8.38;4.75;;;;;;;;;;8225731;28;20018;-60
2023/10/03 08:47:47;;;;;;;7.22;4.63;;;;;;;;;;8227278;28;20056;-60
2023/10/03 08:51:47;;;;;;;10.32;4.78;;;;;;;;;;8225667;28;20113;-60
2023/10/03 08:55:48;;;;;;;8.43;4.70;;;;;;;;;;8224055;28;20019;-60
2023/10/03 08:59:48;;;;;;;8.15;5.13;;;;;;;;;;8227540;28;20030;-61
2023/10/03 09:03:51;;;;;;;7.78;4.63;;;;;;;;;;8226331;28;20108;-61
2023/10/03 09:07:58;;;;;;;6.45;4.45;;;;;;;;;;8222783;28;20018;-59
2023/10/03 09:11:59;;;;;;;7.25;4.50;;;;;;;;;;8217630;28;20030;-60
2023/10/03 09:16:00;;;;;;;7.70;4.47;;;;;;;;;;8220332;28;20042;-60
2023/10/03 09:20:04;;;;;;;8.60;5.10;;;;;;;;;;8224167;28;20029;-60
2023/10/03 09:24:17;;;;;;;10.32;4.93;;;;;;;;;;8218767;28;20133;-60
2023/10/03 09:28:17;;;;;;;12.10;5.10;;;;;;;;;;8219209;28;20035;-60
2023/10/03 09:32:23;;;;;;;7.72;5.05;;;;;;;;;;8215884;28;20033;-60
2023/10/03 09:36:28;;;;;;;8.50;5.35;;;;;;;;;;8220552;28;20409;-60
2023/10/03 09:40:45;;;;;;;10.70;5.00;;;;;;;;;;8216666;28;20034;-61
2023/10/03 09:44:48;;;;;;;9.48;5.15;;;;;;;;;;8222104;28;20356;-61
2023/10/03 09:48:55;;;;;;;9.70;5.00;;;;;;;;;;8218088;28;20041;-62
2023/10/03 09:53:01;;;;;;;8.07;5.25;;;;;;;;;;8215755;28;20026;-61
2023/10/03 09:57:15;;;;;;;8.48;4.80;;;;;;;;;;8218032;28;20462;-61
2023/10/03 10:01:18;;;;;;;7.50;4.90;;;;;;;;;;8214431;28;20048;-61
2023/10/03 10:05:22;;;;;;;;;;;;;;;;;;8215957;28;20022;-61
2023/10/03 10:09:28;;;;;;;8.15;4.95;;;;;;;;;;8217898;28;19920;-61
2023/10/03 10:13:34;;;;;;;7.65;4.75;;;;;;;;;;8217597;28;20038;-61
2023/10/03 10:17:45;;;;;;;8.73;5.18;;;;;;;;;;8218311;28;20034;-60
2023/10/03 10:21:51;;;;;;;8.82;5.15;;;;;;;;;;8214628;28;20019;-60
2023/10/03 10:25:56;;;;;;;7.75;5.25;;;;;;;;;;8214630;28;20030;-61
2023/10/03 10:30:00;;;;;;;9.27;4.70;;;;;;;;;;8215088;28;20054;-60
2023/10/03 10:34:20;;;;;;;6.55;4.25;;;;;;;;;;8216186;28;20095;-61
2023/10/03 10:38:21;;;;;;;10.75;4.75;;;;;;;;;;8215074;28;20029;-60
2023/10/03 10:42:25;;;;;;;8.82;4.82;;;;;;;;;;8215966;28;20132;-61
2023/10/03 10:46:32;;;;;;;6.93;4.40;;;;;;;;;;8217996;28;20061;-60
2023/10/03 10:50:52;;;;;;;9.82;4.75;;;;;;;;;;8217654;28;20145;-61
2023/10/03 10:54:52;;;;;;;9.48;4.00;;;;;;;;;;8216398;28;20072;-60
2023/10/03 10:59:12;;;;;;;9.63;4.22;;;;;;;;;;8218335;28;20019;-60
2023/10/03 11:03:12;;;;;;;8.95;4.18;;;;;;;;;;8217145;28;20406;-61
2023/10/03 11:07:23;;;;;;;8.02;4.28;;;;;;;;;;8217593;28;20827;-61
2023/10/03 11:11:32;;;;;;;7.10;3.95;;;;;;;;;;8217637;28;20025;-61
2023/10/03 11:15:33;;;;;;;13.18;4.35;;;;;;;;;;8214382;28;20526;-60
2023/10/03 11:19:33;;;;;;;7.33;3.90;;;;;;;;;;8217770;28;20073;-61
2023/10/03 11:23:34;;;;;;;9.73;4.03;;;;;;;;;;8216880;28;22392;-60
2023/10/03 11:27:34;;;;;;;6.05;3.50;;;;;;;;;;8218645;28;20272;-60
2023/10/03 11:31:38;;;;;;;7.70;3.63;;;;;;;;;;8214167;28;20117;-60
2023/10/03 11:35:41;;;;;;;5.90;3.50;;;;;;;;;;8218855;28;20021;-61
2023/10/03 11:39:43;;;;;;;7.88;3.03;;;;;;;;;;8216848;28;20029;-61
2023/10/03 11:43:44;;;;;;;7.57;2.75;;;;;;;;;;8220308;28;20030;-60
2023/10/03 11:47:58;;;;;;;8.70;3.13;;;;;;;;;;8221067;28;20034;-61
2023/10/03 11:51:59;;;;;;;6.32;3.20;;;;;;;;;;8217069;28;20026;-61
2023/10/03 11:56:00;;;;;;;8.00;3.30;;;;;;;;;;8217952;28;20026;-61
2023/10/03 12:00:01;;;;;;;10.07;3.10;;;;;;;;;;8215574;28;20101;-60
2023/10/03 12:04:02;;;;;;;6.43;3.10;;;;;;;;;;8216284;28;20038;-60
2023/10/03 12:08:04;;;;;;;7.40;3.28;;;;;;;;;;8217867;28;20731;-61
2023/10/03 12:12:05;;;;;;;5.63;3.10;;;;;;;;;;8213415;28;20029;-61
2023/10/03 12:16:05;;;;;;;10.87;3.30;;;;;;;;;;8213472;28;20041;-62
2023/10/03 12:20:11;;;;;;;6.10;3.40;;;;;;;;;;8214325;28;20018;-61
2023/10/03 12:24:12;;;;;;;9.80;3.38;;;;;;;;;;8216666;28;20030;-61
2023/10/03 12:28:12;;;;;;;8.43;3.67;;;;;;;;;;8216598;28;20026;-61
2023/10/03 12:32:13;;;;;;;6.70;3.30;;;;;;;;;;8213727;28;20370;-62
2023/10/03 12:36:16;;;;;;;15.02;4.05;;;;;;;;;;8212512;28;20120;-60
2023/10/03 12:40:17;;;;;;;7.93;2.80;;;;;;;;;;8212980;28;20050;-60
2023/10/03 12:44:17;;;;;;;5.82;2.20;;;;;;;;;;8213334;28;20085;-61
2023/10/03 12:48:18;;;;;;;10.50;2.47;;;;;;;;;;8218653;28;20125;-62
2023/10/03 12:52:18;;;;;;;2.85;1.75;;;;;;;;;;8212307;28;20022;-62
2023/10/03 12:56:18;;;;;;;3.47;1.50;;;;;;;;;;8216499;28;20038;-62
2023/10/03 13:00:23;;;;;;;4.90;1.30;;;;;;;;;;8219434;28;20172;-62
2023/10/03 13:04:23;;;;;;;3.78;1.70;;;;;;;;;;8213105;28;20102;-61
2023/10/03 13:08:25;;;;;;;5.13;1.58;;;;;;;;;;8215261;28;20875;-61
2023/10/03 13:12:26;;;;;;;1.85;1.67;;;;;;;;;;8214398;28;20118;-61
2023/10/03 13:16:26;;;;;;;2.67;1.33;;;;;;;;;;8213532;28;20065;-60
2023/10/03 13:20:28;;;;;;;2.65;1.20;;;;;;;;;;8214193;28;20040;-61
2023/10/03 13:24:29;;;;;;;1.83;1.10;;;;;;;;;;8214184;28;20145;-61
2023/10/03 13:28:30;;;;;;;2.72;1.00;;;;;;;;;;8219838;28;20177;-61
2023/10/03 13:32:31;;;;;;;3.38;1.10;;;;;;;;;;8217839;28;20104;-61
2023/10/03 13:36:32;;;;;;;1.80;0.90;;;;;;;;;;8221315;28;20883;-61
2023/10/03 13:40:32;;;;;;;1.33;0.80;;;;;;;;;;8216387;28;20034;-61
2023/10/03 13:44:33;;;;;;;1.15;0.90;;;;;;;;;;8219830;28;20037;-61
2023/10/03 13:48:33;;;;;;;2.97;1.00;;;;;;;;;;8222604;28;20038;-62
2023/10/03 13:52:34;;;;;;;1.17;0.70;;;;;;;;;;8221354;28;20061;-61
2023/10/03 13:56:34;;;;;;;3.67;0.60;;;;;;;;;;8221324;28;20038;-62
2023/10/03 14:00:39;;;;;;;0.68;0.68;;;;;;;;;;8219083;28;21015;-62
2023/10/03 14:04:39;;;;;;;1.23;0.50;;;;;;;;;;8217612;28;20633;-61
2023/10/03 14:08:40;;;;;;;2.33;0.70;;;;;;;;;;8220671;28;20026;-61
2023/10/03 14:12:41;;;;;;;0.88;0.60;;;;;;;;;;8220964;28;20145;-64
2023/10/03 14:16:41;;;;;;;2.70;0.60;;;;;;;;;;8222976;28;20074;-66
2023/10/03 14:20:42;;;;;;;0.50;0.50;;;;;;;;;;8223297;28;20026;-62
2023/10/03 14:24:42;;;;;;;2.35;0.57;;;;;;;;;;8218126;28;20030;-61
2023/10/03 14:28:43;;;;;;;0.93;0.50;;;;;;;;;;8225173;28;20236;-61
2023/10/03 14:32:43;;;;;;;0.90;0.60;;;;;;;;;;8222198;28;20042;-62
2023/10/03 14:36:44;;;;;;;0.70;0.50;;;;;;;;;;8223247;28;20093;-63
2023/10/03 14:40:44;;;;;;;1.17;0.70;;;;;;;;;;8217333;28;20731;-62
2023/10/03 14:44:44;;;;;;;0.53;0.53;;;;;;;;;;8217038;28;20109;-62
2023/10/03 14:48:44;;;;;;;2.05;0.80;;;;;;;;;;8214609;28;20045;-62
2023/10/03 14:52:45;;;;;;;0.95;0.73;;;;;;;;;;8219474;28;20036;-61
2023/10/03 14:56:48;;;;;;;0.85;0.80;;;;;;;;;;8213446;28;20079;-62
2023/10/03 15:00:49;;;;;;;0.77;0.63;;;;;;;;;;8214016;28;20049;-61
2023/10/03 15:04:50;;;;;;;0.60;0.60;;;;;;;;;;8215743;28;20032;-63
2023/10/03 15:08:52;;;;;;;1.70;0.80;;;;;;;;;;8216615;28;20026;-62
2023/10/03 15:12:53;;;;;;;0.82;0.80;;;;;;;;;;8217006;28;20022;-63
2023/10/03 15:16:54;;;;;;;1.00;0.90;;;;;;;;;;8213458;28;20118;-61
2023/10/03 15:20:55;;;;;;;2.28;1.20;;;;;;;;;;8214888;28;20030;-62
2023/10/03 15:24:55;;;;;;;1.92;1.20;;;;;;;;;;8211930;28;20032;-62
2023/10/03 15:28:55;;;;;;;1.40;1.20;;;;;;;;;;8210059;28;20036;-62
2023/10/03 15:32:58;;;;;;;1.60;1.50;;;;;;;;;;8215856;28;20046;-62
2023/10/03 15:37:04;;;;;;;1.60;1.50;;;;;;;;;;8210255;28;20029;-62
2023/10/03 15:41:04;;;;;;;2.13;1.55;;;;;;;;;;8218231;28;20028;-62
2023/10/03 15:45:05;;;;;;;3.20;1.80;;;;;;;;;;8213421;28;20018;-62
2023/10/03 15:49:05;;;;;;;2.97;1.80;;;;;;;;;;8216590;28;20275;-61
2023/10/03 15:53:07;;;;;;;4.75;1.90;;;;;;;;;;8215215;28;20041;-62
2023/10/03 15:57:10;;;;;;;2.80;1.70;;;;;;;;;;8217140;28;20575;-63
2023/10/03 16:01:14;;;;;;;2.33;1.70;;;;;;;;;;8208886;28;20212;-62
2023/10/03 16:05:18;;;;;;;2.35;1.67;;;;;;;;;;8212065;28;20083;-63
2023/10/03 16:09:19;;;;;;;4.35;2.03;;;;;;;;;;8212019;28;20053;-62
2023/10/03 16:13:19;;;;;;;5.60;2.05;;;;;;;;;;8214603;28;20038;-61
2023/10/03 16:17:19;;;;;;;3.13;2.10;;;;;;;;;;8212977;28;20099;-62
2023/10/03 16:21:20;;;;;;;6.47;2.00;;;;;;;;;;8212688;28;20022;-61
2023/10/03 16:25:20;;;;;;;4.15;2.17;;;;;;;;;;8213010;28;20033;-62
2023/10/03 16:29:21;;;;;;;4.25;2.17;;;;;;;;;;8207065;28;20045;-61
2023/10/03 16:33:21;;;;;;;4.32;2.40;;;;;;;;;;8211628;28;20042;-62
2023/10/03 16:37:21;;;;;;;3.90;2.20;;;;;;;;;;8209594;28;20025;-61
2023/10/03 16:41:22;;;;;;;4.07;1.85;;;;;;;;;;8213314;28;20026;-62
2023/10/03 16:45:23;;;;;;;2.67;2.03;;;;;;;;;;8208412;28;20038;-62
2023/10/03 16:49:23;;;;;;;2.90;1.87;;;;;;;;;;8209168;28;20030;-61
2023/10/03 16:53:24;;;;;;;2.17;1.67;;;;;;;;;;8213340;28;20267;-61
2023/10/03 16:57:24;;;;;;;4.90;1.93;;;;;;;;;;8215368;28;20037;-61
2023/10/03 17:01:24;;;;;;;3.25;1.90;;;;;;;;;;8215149;28;20042;-62
2023/10/03 17:05:24;;;;;;;2.13;1.65;;;;;;;;;;8216746;28;20096;-62
2023/10/03 17:09:26;;;;;;;1.60;1.50;;;;;;;;;;8215858;28;20029;-61
2023/10/03 17:13:27;;;;;;;2.25;1.80;;;;;;;;;;8214412;28;20018;-62
2023/10/03 17:17:27;;;;;;;3.35;1.50;;;;;;;;;;8216370;28;20069;-60
2023/10/03 17:21:28;;;;;;;3.05;1.77;;;;;;;;;;8215920;28;20481;-62
2023/10/03 17:25:29;;;;;;;4.05;1.60;;;;;;;;;;8216003;28;20026;-61
2023/10/03 17:29:29;;;;;;;2.53;1.63;;;;;;;;;;8217727;28;20807;-62
2023/10/03 17:33:29;;;;;;;3.47;1.75;;;;;;;;;;8215386;28;20038;-61
2023/10/03 17:37:30;;;;;;;4.33;2.07;;;;;;;;;;8219727;28;20032;-61
2023/10/03 17:41:31;;;;;;;2.45;1.60;;;;;;;;;;8217974;28;20370;-62
2023/10/03 17:45:31;;;;;;;2.90;1.77;;;;;;;;;;8215754;28;20061;-61
2023/10/03 17:49:35;;;;;;;2.00;1.50;;;;;;;;;;8215310;28;20098;-62
2023/10/03 17:53:35;;;;;;;;;;;;;;;;;;8214851;28;23292;-61
2023/10/03 17:57:36;;;;;;;5.10;1.70;;;;;;;;;;8215742;28;20064;-62
2023/10/03 18:01:36;;;;;;;2.22;1.48;;;;;;;;;;8208134;28;20541;-62
2023/10/03 18:05:37;;;;;;;1.55;1.42;;;;;;;;;;8214993;28;20033;-62
2023/10/03 18:09:38;;;;;;;1.75;1.48;;;;;;;;;;8215614;28;20036;-62
2023/10/03 18:13:38;;;;;;;3.50;1.90;;;;;;;;;;8212845;28;20156;-62
2023/10/03 18:17:38;;;;;;;6.28;1.60;;;;;;;;;;8214150;28;20620;-61
2023/10/03 18:21:39;;;;;;;1.63;1.42;;;;;;;;;;8216751;28;20022;-61
2023/10/03 18:25:39;;;;;;;4.57;1.50;;;;;;;;;;8214922;28;20022;-61
2023/10/03 18:29:40;;;;;;;6.93;1.55;;;;;;;;;;8217666;28;20026;-64
2023/10/03 18:33:40;;;;;;;3.05;1.58;;;;;;;;;;8214150;28;20100;-61
2023/10/03 18:37:42;;;;;;;1.73;1.50;;;;;;;;;;8212180;28;20670;-62
2023/10/03 18:41:44;;;;;;;2.63;1.80;;;;;;;;;;8219464;28;20018;-61
2023/10/03 18:45:44;;;;;;;3.40;1.77;;;;;;;;;;8213237;28;20097;-61
2023/10/03 18:49:45;;;;;;;4.28;1.70;;;;;;;;;;8213974;28;20119;-62
2023/10/03 18:53:46;;;;;;;1.73;1.63;;;;;;;;;;8209847;28;20030;-61
2023/10/03 18:57:47;;;;;;;2.80;1.52;;;;;;;;;;8213379;28;20174;-62
2023/10/03 19:01:47;;;;;;;2.85;1.80;;;;;;;;;;8211056;28;20047;-61
2023/10/03 19:05:48;;;;;;;2.80;1.40;;;;;;;;;;8215010;28;20034;-61
2023/10/03 19:09:48;;;;;;;3.80;1.65;;;;;;;;;;8214228;28;20033;-61
2023/10/03 19:13:49;;;;;;;2.20;1.63;;;;;;;;;;8209195;28;20694;-62
2023/10/03 19:17:49;;;;;;;1.50;1.40;;;;;;;;;;8207628;28;20855;-61
2023/10/03 19:21:49;;;;;;;3.20;1.70;;;;;;;;;;8212287;28;20033;-62
2023/10/03 19:25:49;;;;;;;2.53;1.48;;;;;;;;;;8213608;28;20764;-62
2023/10/03 19:29:51;;;;;;;4.13;1.77;;;;;;;;;;8212901;28;20338;-62
2023/10/03 19:33:51;;;;;;;2.03;1.60;;;;;;;;;;8213131;28;20510;-62
2023/10/03 19:37:53;;;;;;;3.88;1.80;;;;;;;;;;8213844;28;20027;-62
2023/10/03 19:41:54;;;;;;;4.47;1.48;;;;;;;;;;8207105;28;20052;-63
2023/10/03 19:45:54;;;;;;;1.90;1.50;;;;;;;;;;8212629;28;20037;-62
2023/10/03 19:49:54;;;;;;;4.15;1.88;;;;;;;;;;8212234;28;20271;-62
2023/10/03 19:53:56;;;;;;;3.47;1.40;;;;;;;;;;8212745;28;20087;-62
2023/10/03 19:57:56;;;;;;;1.65;1.48;;;;;;;;;;8209248;28;20079;-62
2023/10/03 20:01:56;;;;;;;2.33;1.60;;;;;;;;;;8208336;28;20765;-62
2023/10/03 20:05:57;;;;;;;2.13;1.50;;;;;;;;;;8214647;28;20427;-61
2023/10/03 20:09:58;;;;;;;4.40;1.60;;;;;;;;;;8213926;28;20030;-62
2023/10/03 20:14:00;;;;;;;1.55;1.33;;;;;;;;;;8217072;28;20188;-62
2023/10/03 20:18:00;;;;;;;4.28;1.58;;;;;;;;;;8215584;28;20037;-62
2023/10/03 20:22:01;;;;;;;1.67;1.30;;;;;;;;;;8216254;28;20876;-62
2023/10/03 20:26:01;;;;;;;2.40;1.20;;;;;;;;;;8222020;28;20029;-61
2023/10/03 20:30:11;;;;;;;1.70;1.45;;;;;;;;;;8216862;28;20031;-63
2023/10/03 20:34:11;;;;;;;2.65;1.50;;;;;;;;;;8217652;28;20084;-62
2023/10/03 20:38:11;;;;;;;2.25;1.50;;;;;;;;;;8218549;28;20133;-62
2023/10/03 20:42:11;;;;;;;2.37;1.50;;;;;;;;;;8223019;28;20053;-63
2023/10/03 20:46:12;;;;;;;2.07;1.50;;;;;;;;;;8214568;28;20385;-62
2023/10/03 20:50:12;;;;;;;2.05;1.27;;;;;;;;;;8220218;28;20109;-63
2023/10/03 20:54:14;;;;;;;1.77;1.25;;;;;;;;;;8223795;28;20034;-63
2023/10/03 20:58:15;;;;;;;1.45;1.33;;;;;;;;;;8223386;28;20686;-63
2023/10/03 21:02:16;;;;;;;1.50;1.38;;;;;;;;;;8219761;28;20044;-62
2023/10/03 21:06:17;;;;;;;2.38;1.55;;;;;;;;;;8223990;28;20152;-62
2023/10/03 21:10:19;;;;;;;3.35;1.50;;;;;;;;;;8224080;28;20038;-62
2023/10/03 21:14:19;;;;;;;2.38;1.33;;;;;;;;;;8230076;28;20470;-62
2023/10/03 21:18:20;;;;;;;1.20;1.03;;;;;;;;;;8224863;28;20147;-62
2023/10/03 21:22:20;;;;;;;1.67;1.48;;;;;;;;;;8220857;28;21269;-62
2023/10/03 21:26:21;;;;;;;4.03;1.40;;;;;;;;;;8221581;28;20066;-62
2023/10/03 21:30:21;;;;;;;2.65;1.50;;;;;;;;;;8220062;28;20625;-62
2023/10/03 21:34:21;;;;;;;2.45;1.52;;;;;;;;;;8227158;28;20026;-62
2023/10/03 21:38:22;;;;;;;3.67;1.42;;;;;;;;;;8224685;28;20083;-62
2023/10/03 21:42:22;;;;;;;2.53;1.30;;;;;;;;;;8221596;28;20018;-62
2023/10/03 21:46:24;;;;;;;4.40;1.35;;;;;;;;;;8221043;28;20453;-62
2023/10/03 21:50:24;;;;;;;2.92;1.58;;;;;;;;;;8222783;28;20026;-61
2023/10/03 21:54:26;;;;;;;1.63;1.40;;;;;;;;;;8218918;28;20032;-62
2023/10/03 21:58:26;;;;;;;3.45;1.77;;;;;;;;;;8221159;28;20851;-62
2023/10/03 22:02:26;;;;;;;2.50;1.60;;;;;;;;;;8221287;28;20056;-62
2023/10/03 22:06:28;;;;;;;2.28;1.70;;;;;;;;;;8221141;28;20113;-62
2023/10/03 22:10:28;;;;;;;4.50;1.80;;;;;;;;;;8218510;28;20034;-61
2023/10/03 22:14:28;;;;;;;2.80;1.60;;;;;;;;;;8220070;28;20045;-61
2023/10/03 22:18:28;;;;;;;4.67;1.97;;;;;;;;;;8217555;28;20038;-61
2023/10/03 22:22:28;;;;;;;2.55;1.52;;;;;;;;;;8221132;28;20292;-62
2023/10/03 22:26:29;;;;;;;2.85;1.92;;;;;;;;;;8220105;28;20118;-61
2023/10/03 22:30:29;;;;;;;4.28;2.05;;;;;;;;;;8217248;28;20038;-61
2023/10/03 22:34:30;;;;;;;3.72;1.98;;;;;;;;;;8220479;28;20026;-62
2023/10/03 22:38:31;;;;;;;2.33;1.70;;;;;;;;;;8221413;28;20697;-62
2023/10/03 22:42:32;;;;;;;2.22;1.67;;;;;;;;;;8219200;28;20052;-62
2023/10/03 22:46:32;;;;;;;2.00;1.80;;;;;;;;;;8222147;28;20033;-61
2023/10/03 22:50:32;;;;;;;4.30;1.67;;;;;;;;;;8216304;28;20396;-62
2023/10/03 22:54:34;;;;;;;3.07;1.77;;;;;;;;;;8217131;28;20276;-67
2023/10/03 22:58:35;;;;;;;2.25;1.80;;;;;;;;;;8217029;28;20038;-62
2023/10/03 23:02:35;;;;;;;2.53;1.73;;;;;;;;;;8217080;28;20046;-61
2023/10/03 23:06:37;;;;;;;2.22;1.60;;;;;;;;;;8220328;28;20073;-62
2023/10/03 23:10:37;;;;;;;3.70;1.65;;;;;;;;;;8216058;28;20057;-62
2023/10/03 23:14:37;;;;;;;3.08;1.77;;;;;;;;;;8218377;28;22506;-62
2023/10/03 23:18:37;;;;;;;4.40;1.98;;;;;;;;;;8215846;28;20050;-62
2023/10/03 23:22:38;;;;;;;3.08;2.03;;;;;;;;;;8218242;28;20025;-62
2023/10/03 23:26:38;;;;;;;2.35;1.58;;;;;;;;;;8223496;28;20029;-61
2023/10/03 23:30:42;;;;;;;4.32;1.90;;;;;;;;;;8218340;28;20044;-62
2023/10/03 23:34:43;;;;;;;3.40;1.73;;;;;;;;;;8218393;28;20018;-62
2023/10/03 23:38:43;;;;;;;2.20;1.67;;;;;;;;;;8229554;28;20034;-61
2023/10/03 23:42:43;;;;;;;4.57;2.00;;;;;;;;;;8220934;28;20049;-61
2023/10/03 23:46:44;;;;;;;4.75;2.30;;;;;;;;;;8220601;28;20100;-61
2023/10/03 23:50:44;;;;;;;3.42;1.67;;;;;;;;;;8219932;28;20026;-61
2023/10/03 23:54:46;;;;;;;4.78;2.20;;;;;;;;;;8220874;28;20068;-62
2023/10/03 23:58:49;;;;;;;4.63;1.92;;;;;;;;;;8221953;28;20034;-61
